Time;durP1;ratioP1;P1;durP2;ratioP2;P2;SDS_P1;SDS_P2;PMS_P1;PMS_P2;Temp;Humidity;BMP_temperature;BMP_pressure;BME280_temperature;BME280_humidity;BME280_pressure;Samples;Min_cycle;Max_cycle;Signal;HPM_P1;HPM_P2
2024/02/19 00:01:43;;;;;;;4.07;1.90;;;;;;;-141.50;100.00;63355.56;4990590;28;20054;-79
2024/02/19 00:04:10;;;;;;;3.40;1.70;;;;;;;-141.50;100.00;63355.56;4989663;28;20133;-77
2024/02/19 00:06:37;;;;;;;3.55;1.80;;;;;;;-141.50;100.00;63355.56;4993598;28;20073;-79
2024/02/19 00:09:04;;;;;;;3.40;1.70;;;;;;;-141.50;100.00;63355.56;4994007;28;20049;-76
2024/02/19 00:11:30;;;;;;;3.38;1.70;;;;;;;-141.50;100.00;63355.56;5007571;28;20049;-78
2024/02/19 00:13:58;;;;;;;5.75;1.83;;;;;;;-141.50;100.00;63355.56;5011963;28;20546;-77
2024/02/19 00:16:25;;;;;;;3.58;1.60;;;;;;;-141.50;100.00;63355.56;4994388;28;20077;-77
2024/02/19 00:18:51;;;;;;;2.45;1.33;;;;;;;-141.50;100.00;63355.56;5012196;28;20132;-78
2024/02/19 00:21:18;;;;;;;5.97;2.10;;;;;;;-141.50;100.00;63355.56;4994166;28;20069;-80
2024/02/19 00:23:45;;;;;;;3.40;1.55;;;;;;;-141.50;100.00;63355.56;4994296;28;20073;-79
2024/02/19 00:26:13;;;;;;;3.22;1.50;;;;;;;-141.50;100.00;63355.56;4994030;28;20518;-78
2024/02/19 00:28:40;;;;;;;2.70;1.55;;;;;;;-141.50;100.00;63355.56;4993808;28;20046;-79
2024/02/19 00:31:10;;;;;;;2.35;1.38;;;;;;;-141.50;100.00;63355.56;4993145;28;20058;-78
2024/02/19 00:33:38;;;;;;;2.25;1.20;;;;;;;-141.50;100.00;63355.56;4993900;28;20232;-78
2024/02/19 00:36:05;;;;;;;1.70;1.10;;;;;;;-141.50;100.00;63355.56;4994581;28;20132;-78
2024/02/19 00:38:31;;;;;;;1.83;1.20;;;;;;;-141.50;100.00;63355.56;5010997;28;20136;-78
2024/02/19 00:40:58;;;;;;;1.98;1.05;;;;;;;-141.50;100.00;63355.56;4992662;28;20061;-80
2024/02/19 00:43:25;;;;;;;1.90;1.13;;;;;;;-141.50;100.00;63355.56;4992993;28;20061;-79
2024/02/19 00:45:52;;;;;;;1.45;0.90;;;;;;;-141.50;100.00;63355.56;4995278;28;20042;-78
2024/02/19 00:48:18;;;;;;;3.00;1.10;;;;;;;-141.50;100.00;63355.56;4992644;28;20422;-77
2024/02/19 00:50:45;;;;;;;3.05;1.02;;;;;;;-141.50;100.00;63355.56;5013565;28;20049;-80
2024/02/19 00:53:12;;;;;;;1.83;1.02;;;;;;;-141.50;100.00;63355.56;4987323;28;20049;-79
2024/02/19 00:55:38;;;;;;;1.98;0.80;;;;;;;-141.50;100.00;63355.56;4994807;28;20448;-79
2024/02/19 00:58:05;;;;;;;1.60;1.10;;;;;;;-141.50;100.00;63355.56;4994260;28;20100;-80
2024/02/19 01:00:32;;;;;;;1.38;0.88;;;;;;;-141.50;100.00;63355.56;5011818;28;20046;-81
2024/02/19 01:02:59;;;;;;;1.90;1.00;;;;;;;-141.50;100.00;63355.56;4995171;28;20053;-79
2024/02/19 01:05:26;;;;;;;2.20;0.80;;;;;;;-141.50;100.00;63355.56;5009173;28;20074;-80
2024/02/19 01:07:53;;;;;;;2.38;0.90;;;;;;;-141.50;100.00;63355.56;5016434;28;20129;-80
2024/02/19 01:10:19;;;;;;;1.98;1.00;;;;;;;-141.50;100.00;63355.56;4993406;28;20580;-80
2024/02/19 01:12:46;;;;;;;1.35;0.90;;;;;;;-141.50;100.00;63355.56;5016214;28;20041;-79
2024/02/19 01:15:13;;;;;;;1.25;0.57;;;;;;;-141.50;100.00;63355.56;5010225;28;20049;-80
2024/02/19 01:17:40;;;;;;;0.93;0.63;;;;;;;-141.50;100.00;63355.56;4996410;28;20045;-79
2024/02/19 01:20:08;;;;;;;2.17;0.60;;;;;;;-141.50;100.00;63355.56;5013012;28;20065;-81
2024/02/19 01:22:38;;;;;;;0.82;0.60;;;;;;;-141.50;100.00;63355.56;5012180;28;20046;-80
2024/02/19 01:25:05;;;;;;;1.33;0.70;;;;;;;-141.50;100.00;63355.56;4978879;28;20145;-80
2024/02/19 01:27:35;;;;;;;1.23;0.70;;;;;;;-141.50;100.00;63355.56;5012290;28;20097;-79
2024/02/19 01:30:01;;;;;;;1.30;0.80;;;;;;;-141.50;100.00;63355.56;4994369;28;20113;-80
2024/02/19 01:32:28;;;;;;;0.98;0.68;;;;;;;-141.50;100.00;63355.56;5011411;28;20469;-80
2024/02/19 01:34:55;;;;;;;0.82;0.70;;;;;;;-141.50;100.00;63355.56;5012380;28;20282;-79
2024/02/19 01:37:22;;;;;;;2.17;0.82;;;;;;;-141.50;100.00;63355.56;4995224;28;20574;-80
2024/02/19 01:39:49;;;;;;;1.13;0.70;;;;;;;-141.50;100.00;63355.56;4994081;28;20049;-80
2024/02/19 01:42:15;;;;;;;3.88;1.00;;;;;;;-141.50;100.00;63355.56;5010626;28;20558;-79
2024/02/19 01:44:42;;;;;;;1.30;0.85;;;;;;;-141.50;100.00;63355.56;5012948;28;20042;-80
2024/02/19 01:47:09;;;;;;;1.75;1.00;;;;;;;-141.50;100.00;63355.56;4993663;28;20049;-77
2024/02/19 01:49:38;;;;;;;3.47;1.10;;;;;;;-141.50;100.00;63355.56;5012449;28;20042;-79
2024/02/19 01:52:06;;;;;;;2.35;1.05;;;;;;;-141.50;100.00;63355.56;5010450;28;20073;-78
2024/02/19 01:54:35;;;;;;;2.08;1.00;;;;;;;-141.50;100.00;63355.56;5010147;28;20244;-79
2024/02/19 01:57:02;;;;;;;3.42;1.35;;;;;;;-141.50;100.00;63355.56;5011605;28;20070;-80
2024/02/19 01:59:31;;;;;;;1.90;1.08;;;;;;;-141.50;100.00;63355.56;5011038;28;20050;-80
2024/02/19 02:01:59;;;;;;;2.50;1.33;;;;;;;-141.50;100.00;63355.56;4981272;28;20488;-80
2024/02/19 02:04:27;;;;;;;3.10;1.23;;;;;;;-141.50;100.00;63355.56;5009899;28;20523;-79
2024/02/19 02:06:55;;;;;;;3.47;1.40;;;;;;;-141.50;100.00;63355.56;5012032;28;20080;-79
2024/02/19 02:09:22;;;;;;;2.08;1.13;;;;;;;-141.50;100.00;63355.56;5009718;28;20062;-80
2024/02/19 02:11:49;;;;;;;2.75;1.42;;;;;;;-141.50;100.00;63355.56;5010860;28;20042;-80
2024/02/19 02:14:16;;;;;;;1.83;1.13;;;;;;;-141.50;100.00;63355.56;5009007;28;20248;-79
2024/02/19 02:16:42;;;;;;;2.63;1.30;;;;;;;-141.50;100.00;63355.56;5001195;28;20042;-79
2024/02/19 02:19:12;;;;;;;1.73;1.00;;;;;;;-141.50;100.00;63355.56;4989824;28;20034;-79
2024/02/19 02:21:41;;;;;;;3.72;1.30;;;;;;;-141.50;100.00;63355.56;5010040;28;20547;-78
2024/02/19 02:24:08;;;;;;;2.70;1.20;;;;;;;-141.50;100.00;63355.56;4971443;28;20557;-80
2024/02/19 02:26:38;;;;;;;2.13;1.30;;;;;;;-141.50;100.00;63355.56;5008725;28;20050;-79
2024/02/19 02:29:04;;;;;;;4.05;1.10;;;;;;;-141.50;100.00;63355.56;5008378;28;20061;-78
2024/02/19 02:31:32;;;;;;;2.03;1.20;;;;;;;-141.50;100.00;63355.56;5006328;28;20065;-79
2024/02/19 02:33:58;;;;;;;2.83;0.80;;;;;;;-141.50;100.00;63355.56;5010068;28;20107;-79
2024/02/19 02:36:29;;;;;;;2.13;0.90;;;;;;;-141.50;100.00;63355.56;5009533;28;20137;-79
2024/02/19 02:38:55;;;;;;;1.15;0.80;;;;;;;-141.50;100.00;63355.56;4991889;28;20480;-77
2024/02/19 02:41:23;;;;;;;1.58;1.13;;;;;;;-141.50;100.00;63355.56;5009111;28;20053;-78
2024/02/19 02:43:50;;;;;;;3.78;0.93;;;;;;;-141.50;100.00;63355.56;4993010;28;20049;-78
2024/02/19 02:46:17;;;;;;;1.42;0.90;;;;;;;-141.50;100.00;63355.56;5010258;28;20128;-79
2024/02/19 02:48:44;;;;;;;1.13;0.70;;;;;;;-141.50;100.00;63355.56;5009867;28;20045;-78
2024/02/19 02:51:11;;;;;;;2.10;0.68;;;;;;;-141.50;100.00;63355.56;5009718;28;20062;-78
2024/02/19 02:53:38;;;;;;;0.93;0.65;;;;;;;-141.50;100.00;63355.56;5010959;28;20185;-78
2024/02/19 02:56:05;;;;;;;2.55;0.88;;;;;;;-141.50;100.00;63355.56;4992613;28;20069;-79
2024/02/19 02:58:35;;;;;;;1.65;0.80;;;;;;;-141.50;100.00;63355.56;5013809;28;20054;-78
2024/02/19 03:01:02;;;;;;;1.00;0.70;;;;;;;-141.50;100.00;63355.56;4987836;28;20088;-77
2024/02/19 03:03:32;;;;;;;0.90;0.80;;;;;;;-141.50;100.00;63355.56;4994240;28;20056;-77
2024/02/19 03:06:00;;;;;;;2.20;0.80;;;;;;;-141.50;100.00;63355.56;5011242;28;20105;-77
2024/02/19 03:08:27;;;;;;;2.80;1.02;;;;;;;-141.50;100.00;63355.56;4988754;28;20614;-76
2024/02/19 03:10:53;;;;;;;0.57;0.50;;;;;;;-141.50;100.00;63355.56;5008869;28;20242;-77
2024/02/19 03:13:20;;;;;;;2.75;0.68;;;;;;;-141.50;100.00;63355.56;5007260;28;20363;-78
2024/02/19 03:15:47;;;;;;;1.70;0.63;;;;;;;-141.50;100.00;63355.56;4988405;28;20042;-77
2024/02/19 03:18:14;;;;;;;1.70;0.70;;;;;;;-141.50;100.00;63355.56;4988701;28;20049;-77
2024/02/19 03:20:41;;;;;;;0.88;0.60;;;;;;;-141.50;100.00;63355.56;5006414;28;20065;-76
2024/02/19 03:23:09;;;;;;;1.35;0.60;;;;;;;-141.50;100.00;63355.56;4988039;28;20050;-77
2024/02/19 03:25:36;;;;;;;0.63;0.50;;;;;;;-141.50;100.00;63355.56;4974191;28;20065;-78
2024/02/19 03:28:03;;;;;;;1.33;0.52;;;;;;;-141.50;100.00;63355.56;4996544;28;20140;-75
2024/02/19 03:30:30;;;;;;;0.47;0.38;;;;;;;-141.50;100.00;63355.56;4986783;28;20053;-76
2024/02/19 03:32:57;;;;;;;0.77;0.50;;;;;;;-141.50;100.00;63355.56;4988181;28;20082;-76
2024/02/19 03:35:24;;;;;;;1.02;0.32;;;;;;;-141.50;100.00;63355.56;4979299;28;20057;-77
2024/02/19 03:37:50;;;;;;;0.57;0.40;;;;;;;-141.50;100.00;63355.56;5006146;28;20119;-77
2024/02/19 03:40:17;;;;;;;0.70;0.50;;;;;;;-141.50;100.00;63355.56;5004511;28;20065;-77
2024/02/19 03:42:44;;;;;;;0.80;0.50;;;;;;;-141.50;100.00;63355.56;5004212;28;20054;-77
2024/02/19 03:45:11;;;;;;;2.85;0.60;;;;;;;-141.50;100.00;63355.56;5003223;28;20053;-76
2024/02/19 03:47:38;;;;;;;1.27;0.40;;;;;;;-141.50;100.00;63355.56;5004862;28;20077;-77
2024/02/19 03:50:05;;;;;;;0.50;0.30;;;;;;;-141.50;100.00;63355.56;4988757;28;20065;-77
2024/02/19 03:52:32;;;;;;;0.28;0.20;;;;;;;-141.50;100.00;63355.56;4989208;28;20085;-78
2024/02/19 03:54:59;;;;;;;0.28;0.28;;;;;;;-141.50;100.00;63355.56;5011310;28;20125;-78
2024/02/19 03:57:27;;;;;;;0.20;0.20;;;;;;;-141.50;100.00;63355.56;4975516;28;20551;-79
2024/02/19 03:59:54;;;;;;;0.30;0.20;;;;;;;-141.50;100.00;63355.56;4978167;28;20072;-79
2024/02/19 04:02:20;;;;;;;0.38;0.20;;;;;;;-141.50;100.00;63355.56;5008792;28;20112;-78
2024/02/19 04:04:47;;;;;;;0.35;0.20;;;;;;;-141.50;100.00;63355.56;5004865;28;20126;-79
2024/02/19 04:07:14;;;;;;;0.30;0.10;;;;;;;-141.50;100.00;63355.56;4990058;28;20050;-77
2024/02/19 04:09:41;;;;;;;0.43;0.20;;;;;;;-141.50;100.00;63355.56;5008992;28;20061;-78
2024/02/19 04:12:10;;;;;;;0.52;0.10;;;;;;;-141.50;100.00;63355.56;4991109;28;20054;-78
2024/02/19 04:14:41;;;;;;;0.15;0.10;;;;;;;-141.50;100.00;63355.56;5001243;28;20065;-79
2024/02/19 04:17:08;;;;;;;0.10;0.10;;;;;;;-141.50;100.00;63355.56;5010689;28;20072;-79
2024/02/19 04:19:34;;;;;;;0.10;0.10;;;;;;;-141.50;100.00;63355.56;5006742;28;20419;-77
2024/02/19 04:22:04;;;;;;;0.00;0.00;;;;;;;-141.50;100.00;63355.56;4991071;28;20054;-79
2024/02/19 04:24:31;;;;;;;0.25;0.00;;;;;;;-141.50;100.00;63355.56;5007609;28;20065;-79
2024/02/19 04:26:58;;;;;;;0.00;0.00;;;;;;;-141.50;100.00;63355.56;5008998;28;20520;-79
2024/02/19 04:29:25;;;;;;;0.32;0.10;;;;;;;-141.50;100.00;63355.56;4990531;28;20139;-78
2024/02/19 04:31:52;;;;;;;0.08;0.00;;;;;;;-141.50;100.00;63355.56;5009049;28;20046;-78
2024/02/19 04:34:18;;;;;;;0.35;0.05;;;;;;;-141.50;100.00;63355.56;5007966;28;20467;-79
2024/02/19 04:36:45;;;;;;;1.23;0.10;;;;;;;-141.50;100.00;63355.56;4991117;28;20049;-79
2024/02/19 04:39:12;;;;;;;0.00;0.00;;;;;;;-141.50;100.00;63355.56;5006378;28;20065;-78
2024/02/19 04:41:38;;;;;;;0.10;0.10;;;;;;;-141.50;100.00;63355.56;5007629;28;20061;-78
2024/02/19 04:44:05;;;;;;;0.50;0.10;;;;;;;-141.50;100.00;63355.56;5008108;28;20054;-78
2024/02/19 04:46:33;;;;;;;0.30;0.00;;;;;;;-141.50;100.00;63355.56;5006469;28;20152;-78
2024/02/19 04:49:00;;;;;;;0.00;0.00;;;;;;;-141.50;100.00;63355.56;5008825;28;20540;-78
2024/02/19 04:51:28;;;;;;;0.28;0.00;;;;;;;-141.50;100.00;63355.56;5011774;28;20072;-78
2024/02/19 04:53:55;;;;;;;0.00;0.00;;;;;;;-141.50;100.00;63355.56;5019705;28;20113;-78
2024/02/19 04:56:22;;;;;;;0.20;0.00;;;;;;;-141.50;100.00;63355.56;5012593;28;20058;-77
2024/02/19 04:58:48;;;;;;;0.10;0.00;;;;;;;-141.50;100.00;63355.56;5012669;28;20053;-77
2024/02/19 05:01:15;;;;;;;0.00;0.00;;;;;;;-141.50;100.00;63355.56;4993217;28;20085;-79
2024/02/19 05:03:42;;;;;;;0.30;0.10;;;;;;;-141.50;100.00;63355.56;5014198;28;20337;-79
2024/02/19 05:06:08;;;;;;;0.20;0.10;;;;;;;-141.50;100.00;63355.56;5005296;28;20073;-78
2024/02/19 05:08:35;;;;;;;0.05;0.05;;;;;;;-141.50;100.00;63355.56;5011522;28;20081;-77
2024/02/19 05:11:02;;;;;;;0.10;0.00;;;;;;;-141.50;100.00;63355.56;4994865;28;20585;-78
2024/02/19 05:13:33;;;;;;;0.00;0.00;;;;;;;-141.50;100.00;63355.56;5011734;28;20041;-78
2024/02/19 05:15:59;;;;;;;0.00;0.00;;;;;;;-141.50;100.00;63355.56;5006045;28;20058;-78
2024/02/19 05:18:26;;;;;;;0.55;0.15;;;;;;;-141.50;100.00;63355.56;5008370;28;20058;-78
2024/02/19 05:20:53;;;;;;;0.20;0.10;;;;;;;-141.50;100.00;63355.56;5007486;28;20058;-78
2024/02/19 05:23:19;;;;;;;0.00;0.00;;;;;;;-141.50;100.00;63355.56;5010509;28;20108;-78
2024/02/19 05:25:46;;;;;;;0.25;0.20;;;;;;;-141.50;100.00;63355.56;5014641;28;20466;-78
2024/02/19 05:28:14;;;;;;;0.55;0.28;;;;;;;-141.50;100.00;63355.56;5013573;28;20062;-77
2024/02/19 05:30:41;;;;;;;0.25;0.20;;;;;;;-141.50;100.00;63355.56;5011026;28;20138;-78
2024/02/19 05:33:08;;;;;;;0.38;0.30;;;;;;;-141.50;100.00;63355.56;5013013;28;20361;-78
2024/02/19 05:35:34;;;;;;;0.52;0.40;;;;;;;-141.50;100.00;63355.56;5014752;28;20065;-77
2024/02/19 05:38:01;;;;;;;0.70;0.52;;;;;;;-141.50;100.00;63355.56;5014044;28;20050;-78
2024/02/19 05:40:28;;;;;;;1.35;0.60;;;;;;;-141.50;100.00;63355.56;5015091;28;20041;-77
2024/02/19 05:42:55;;;;;;;0.80;0.70;;;;;;;-141.50;100.00;63355.56;5015207;28;20057;-77
2024/02/19 05:45:24;;;;;;;1.00;0.65;;;;;;;-141.50;100.00;63355.56;5014901;28;20053;-77
2024/02/19 05:47:51;;;;;;;1.50;0.88;;;;;;;-141.50;100.00;63355.56;4998540;28;20334;-77
2024/02/19 05:50:18;;;;;;;1.10;1.00;;;;;;;-141.50;100.00;63355.56;4994073;28;20487;-77
2024/02/19 05:52:45;;;;;;;1.95;1.25;;;;;;;-141.50;100.00;63355.56;5006655;28;20064;-76
2024/02/19 05:55:11;;;;;;;3.53;1.25;;;;;;;-141.50;100.00;63355.56;5017468;28;20060;-77
2024/02/19 05:57:38;;;;;;;1.10;0.80;;;;;;;-141.50;100.00;63355.56;5015978;28;20072;-77
2024/02/19 06:00:13;;;;;;;1.05;0.80;;;;;;;-141.50;100.00;63355.56;5015592;28;20084;-77
2024/02/19 06:02:41;;;;;;;1.05;0.73;;;;;;;-141.50;100.00;63355.56;5015403;28;20050;-78
2024/02/19 06:05:09;;;;;;;1.30;0.70;;;;;;;-141.50;100.00;63355.56;5013384;28;20061;-78
2024/02/19 06:07:36;;;;;;;2.65;0.75;;;;;;;-141.50;100.00;63355.56;5014239;28;20116;-77
2024/02/19 06:10:07;;;;;;;1.00;0.60;;;;;;;-141.50;100.00;63355.56;5011520;28;20042;-77
2024/02/19 06:12:34;;;;;;;0.88;0.50;;;;;;;-141.50;100.00;63355.56;5012322;28;20700;-78
2024/02/19 06:15:01;;;;;;;1.02;0.60;;;;;;;-141.50;100.00;63355.56;4980700;28;20427;-78
2024/02/19 06:17:27;;;;;;;3.92;0.70;;;;;;;-141.50;100.00;63355.56;5010297;28;20073;-76
2024/02/19 06:19:54;;;;;;;1.13;0.73;;;;;;;-141.50;100.00;63355.56;5012378;28;20064;-77
2024/02/19 06:22:21;;;;;;;1.10;0.70;;;;;;;-141.50;100.00;63355.56;5001439;28;20181;-78
2024/02/19 06:24:48;;;;;;;1.30;1.10;;;;;;;-141.50;100.00;63355.56;5014379;28;20062;-77
2024/02/19 06:27:15;;;;;;;1.90;0.60;;;;;;;-141.50;100.00;63355.56;4988660;28;20058;-77
2024/02/19 06:29:41;;;;;;;0.90;0.60;;;;;;;-141.50;100.00;63355.56;5013482;28;20057;-78
2024/02/19 06:32:08;;;;;;;2.38;0.70;;;;;;;-141.50;100.00;63355.56;4995390;28;20081;-78
2024/02/19 06:34:35;;;;;;;0.73;0.60;;;;;;;-141.50;100.00;63355.56;4995845;28;20530;-78
2024/02/19 06:37:02;;;;;;;0.65;0.50;;;;;;;-141.50;100.00;63355.56;4997172;28;20469;-78
2024/02/19 06:39:29;;;;;;;1.52;1.00;;;;;;;-141.50;100.00;63355.56;4994681;28;20048;-79
2024/02/19 06:41:56;;;;;;;1.05;0.75;;;;;;;-141.50;100.00;63355.56;5013625;28;20275;-77
2024/02/19 06:44:22;;;;;;;1.23;0.80;;;;;;;-141.50;100.00;63355.56;4999405;28;20050;-78
2024/02/19 06:46:49;;;;;;;2.03;1.13;;;;;;;-141.50;100.00;63355.56;5002186;28;20058;-77
2024/02/19 06:49:16;;;;;;;1.00;0.75;;;;;;;-141.50;100.00;63355.56;4983629;28;20054;-78
2024/02/19 06:51:43;;;;;;;1.83;1.00;;;;;;;-141.50;100.00;63355.56;5010548;28;20058;-78
2024/02/19 06:54:10;;;;;;;1.80;1.17;;;;;;;-141.50;100.00;63355.56;4992403;28;20049;-78
2024/02/19 06:56:36;;;;;;;0.90;0.60;;;;;;;-141.50;100.00;63355.56;4995159;28;20046;-79
2024/02/19 06:59:03;;;;;;;1.83;1.13;;;;;;;-141.50;100.00;63355.56;4995943;28;20058;-78
2024/02/19 07:01:30;;;;;;;1.80;1.20;;;;;;;-141.50;100.00;63355.56;5009832;28;20092;-77
2024/02/19 07:03:57;;;;;;;1.67;1.00;;;;;;;-141.50;100.00;63355.56;4994891;28;20266;-79
2024/02/19 07:06:23;;;;;;;1.48;1.05;;;;;;;-141.50;100.00;63355.56;4986878;28;20128;-79
2024/02/19 07:08:50;;;;;;;1.33;0.98;;;;;;;-141.50;100.00;63355.56;4994815;28;20400;-78
2024/02/19 07:11:17;;;;;;;1.70;1.05;;;;;;;-141.50;100.00;63355.56;5011470;28;20393;-79
2024/02/19 07:13:44;;;;;;;1.05;0.90;;;;;;;-141.50;100.00;63355.56;4992982;28;20053;-78
2024/02/19 07:16:11;;;;;;;2.67;0.50;;;;;;;-141.50;100.00;63355.56;5009868;28;20057;-78
2024/02/19 07:18:38;;;;;;;0.68;0.40;;;;;;;-141.50;100.00;63355.56;5010251;28;20107;-79
2024/02/19 07:21:06;;;;;;;0.52;0.40;;;;;;;-141.50;100.00;63355.56;5010028;28;20248;-79
2024/02/19 07:23:32;;;;;;;0.85;0.57;;;;;;;-141.50;100.00;63355.56;5008272;28;20121;-77
2024/02/19 07:25:59;;;;;;;1.48;0.70;;;;;;;-141.50;100.00;63355.56;5009119;28;20054;-79
2024/02/19 07:28:26;;;;;;;1.83;0.65;;;;;;;-141.50;100.00;63355.56;5008444;28;20053;-78
2024/02/19 07:30:53;;;;;;;1.17;0.50;;;;;;;-141.50;100.00;63355.56;5008224;28;20073;-77
2024/02/19 07:33:20;;;;;;;0.45;0.30;;;;;;;-141.50;100.00;63355.56;5006900;28;20057;-77
2024/02/19 07:35:46;;;;;;;1.00;0.30;;;;;;;-141.50;100.00;63355.56;4991725;28;20463;-79
2024/02/19 07:38:13;;;;;;;0.43;0.28;;;;;;;-141.50;100.00;63355.56;5008459;28;20054;-79
2024/02/19 07:40:40;;;;;;;0.35;0.30;;;;;;;-141.50;100.00;63355.56;5012160;28;20073;-79
2024/02/19 07:43:06;;;;;;;3.38;0.40;;;;;;;-141.50;100.00;63355.56;5009169;28;20058;-77
2024/02/19 07:45:33;;;;;;;0.93;0.30;;;;;;;-141.50;100.00;63355.56;5008141;28;20046;-78
2024/02/19 07:48:00;;;;;;;1.23;0.40;;;;;;;-141.50;100.00;63355.56;5007539;28;20086;-78
2024/02/19 07:50:27;;;;;;;0.60;0.28;;;;;;;-141.50;100.00;63355.56;5006106;28;20069;-77
2024/02/19 07:52:54;;;;;;;1.05;0.20;;;;;;;-141.50;100.00;63355.56;4989854;28;20058;-78
2024/02/19 07:55:20;;;;;;;0.40;0.20;;;;;;;-141.50;100.00;63355.56;4991197;28;20060;-78
2024/02/19 07:57:47;;;;;;;0.50;0.20;;;;;;;-141.50;100.00;63355.56;4990522;28;20057;-79
2024/02/19 08:00:14;;;;;;;1.05;0.10;;;;;;;-141.50;100.00;63355.56;5007093;28;20058;-79
2024/02/19 08:02:41;;;;;;;0.30;0.20;;;;;;;-141.50;100.00;63355.56;5004281;28;20273;-76
2024/02/19 08:05:08;;;;;;;0.40;0.30;;;;;;;-141.50;100.00;63355.56;4985741;28;20472;-78
2024/02/19 08:07:35;;;;;;;1.10;0.22;;;;;;;-141.50;100.00;63355.56;4994902;28;20085;-77
2024/02/19 08:10:02;;;;;;;0.20;0.20;;;;;;;-141.50;100.00;63355.56;5005854;28;20062;-76
2024/02/19 08:12:33;;;;;;;1.58;0.30;;;;;;;-141.50;100.00;63355.56;5003081;28;20050;-78
2024/02/19 08:15:05;;;;;;;1.38;0.20;;;;;;;-141.50;100.00;63355.56;4988720;28;20107;-77
2024/02/19 08:17:31;;;;;;;0.50;0.10;;;;;;;-141.50;100.00;63355.56;4971230;28;20141;-76
2024/02/19 08:19:58;;;;;;;0.80;0.30;;;;;;;-141.50;100.00;63355.56;5007032;28;20058;-78
2024/02/19 08:22:25;;;;;;;1.13;0.35;;;;;;;-141.50;100.00;63355.56;5005425;28;21553;-78
2024/02/19 08:24:52;;;;;;;0.55;0.38;;;;;;;-141.50;100.00;63355.56;4988493;28;20141;-77
2024/02/19 08:27:18;;;;;;;0.45;0.20;;;;;;;-141.50;100.00;63355.56;4988507;28;20591;-76
2024/02/19 08:29:45;;;;;;;0.50;0.40;;;;;;;-141.50;100.00;63355.56;5009337;28;20058;-78
2024/02/19 08:32:12;;;;;;;0.40;0.20;;;;;;;-141.50;100.00;63355.56;5010634;28;20535;-78
2024/02/19 08:34:38;;;;;;;1.23;0.50;;;;;;;-141.50;100.00;63355.56;5017594;28;20046;-77
2024/02/19 08:37:05;;;;;;;3.00;0.30;;;;;;;-141.50;100.00;63355.56;4996733;28;20061;-77
2024/02/19 08:39:32;;;;;;;0.10;0.10;;;;;;;-141.50;100.00;63355.56;5010221;28;20069;-78
2024/02/19 08:41:59;;;;;;;1.38;0.40;;;;;;;-141.50;100.00;63355.56;5011978;28;20077;-78
2024/02/19 08:44:26;;;;;;;1.55;0.50;;;;;;;-141.50;100.00;63355.56;5010224;28;20411;-77
2024/02/19 08:46:53;;;;;;;0.95;0.45;;;;;;;-141.50;100.00;63355.56;4993794;28;20062;-77
2024/02/19 08:49:19;;;;;;;1.42;0.40;;;;;;;-141.50;100.00;63355.56;5010912;28;20120;-76
2024/02/19 08:51:46;;;;;;;0.90;0.40;;;;;;;-141.50;100.00;63355.56;5007678;28;20084;-77
2024/02/19 08:54:13;;;;;;;0.80;0.30;;;;;;;-141.50;100.00;63355.56;5009923;28;20494;-78
2024/02/19 08:56:40;;;;;;;2.50;0.50;;;;;;;-141.50;100.00;63355.56;5010487;28;20271;-77
2024/02/19 08:59:07;;;;;;;0.68;0.28;;;;;;;-141.50;100.00;63355.56;5009692;28;20166;-77
2024/02/19 09:01:35;;;;;;;0.50;0.20;;;;;;;-141.50;100.00;63355.56;5007969;28;20049;-78
2024/02/19 09:04:01;;;;;;;0.20;0.10;;;;;;;-141.50;100.00;63355.56;4990801;28;20046;-77
2024/02/19 09:06:31;;;;;;;0.43;0.20;;;;;;;-141.50;100.00;63355.56;4980601;28;20069;-77
2024/02/19 09:09:00;;;;;;;0.30;0.10;;;;;;;-141.50;100.00;63355.56;4990456;28;20072;-77
2024/02/19 09:11:26;;;;;;;0.60;0.20;;;;;;;-141.50;100.00;63355.56;5007338;28;20041;-77
2024/02/19 09:13:53;;;;;;;0.10;0.10;;;;;;;-141.50;100.00;63355.56;4979832;28;20063;-77
2024/02/19 09:16:20;;;;;;;0.17;0.15;;;;;;;-141.50;100.00;63355.56;5004320;28;20494;-77
2024/02/19 09:18:47;;;;;;;0.47;0.20;;;;;;;-141.50;100.00;63355.56;4990534;28;20246;-78
2024/02/19 09:21:14;;;;;;;0.63;0.20;;;;;;;-141.50;100.00;63355.56;5007629;28;20062;-77
2024/02/19 09:23:41;;;;;;;0.20;0.17;;;;;;;-141.50;100.00;63355.56;4989386;28;20589;-77
2024/02/19 09:26:14;;;;;;;0.17;0.15;;;;;;;-141.50;100.00;63355.56;5008088;28;20065;-77
2024/02/19 09:28:40;;;;;;;3.28;0.30;;;;;;;-141.50;100.00;63355.56;4989250;28;20427;-77
2024/02/19 09:31:07;;;;;;;0.47;0.20;;;;;;;-141.50;100.00;63355.56;4989618;28;20064;-77
2024/02/19 09:33:34;;;;;;;2.25;0.47;;;;;;;-141.50;100.00;63355.56;5008656;28;20299;-77
2024/02/19 09:36:03;;;;;;;0.40;0.30;;;;;;;-141.50;100.00;63355.56;5009735;28;20054;-77
2024/02/19 09:38:29;;;;;;;1.80;0.30;;;;;;;-141.50;100.00;63355.56;4989789;28;20042;-77
2024/02/19 09:40:56;;;;;;;0.40;0.28;;;;;;;-141.50;100.00;63355.56;4996182;28;20061;-78
2024/02/19 09:43:24;;;;;;;1.15;0.30;;;;;;;-141.50;100.00;63355.56;4992752;28;20061;-76
2024/02/19 09:45:51;;;;;;;0.40;0.20;;;;;;;-141.50;100.00;63355.56;5008279;28;20074;-77
2024/02/19 09:48:19;;;;;;;0.40;0.32;;;;;;;-141.50;100.00;63355.56;5007156;28;20113;-77
2024/02/19 09:50:48;;;;;;;0.65;0.20;;;;;;;-141.50;100.00;63355.56;4989684;28;20061;-77
2024/02/19 09:53:27;;;;;;;0.57;0.20;;;;;;;-141.50;100.00;63355.56;4989561;28;20523;-76
2024/02/19 09:55:54;;;;;;;0.38;0.30;;;;;;;-141.50;100.00;63355.56;5001249;28;20061;-77
2024/02/19 09:58:21;;;;;;;0.20;0.20;;;;;;;-141.50;100.00;63355.56;5011170;28;20066;-77
2024/02/19 10:00:48;;;;;;;2.58;0.30;;;;;;;-141.50;100.00;63355.56;4979582;28;20047;-78
2024/02/19 10:03:17;;;;;;;0.50;0.30;;;;;;;-141.50;100.00;63355.56;4994491;28;20487;-77
2024/02/19 10:05:44;;;;;;;0.10;0.10;;;;;;;-141.50;100.00;63355.56;5006018;28;20405;-77
2024/02/19 10:08:14;;;;;;;0.13;0.13;;;;;;;-141.50;100.00;63355.56;5006197;28;20068;-77
2024/02/19 10:10:42;;;;;;;1.67;0.20;;;;;;;-141.50;100.00;63355.56;4988996;28;20601;-77
2024/02/19 10:13:12;;;;;;;3.42;0.30;;;;;;;-141.50;100.00;63355.56;4989142;28;20061;-78
2024/02/19 10:15:39;;;;;;;2.17;0.10;;;;;;;-141.50;100.00;63355.56;4988111;28;20054;-77
2024/02/19 10:18:18;;;;;;;0.35;0.10;;;;;;;-141.50;100.00;63355.56;4989981;28;20065;-78
2024/02/19 10:20:50;;;;;;;0.32;0.20;;;;;;;-141.50;100.00;63355.56;5003806;28;20133;-78
2024/02/19 10:23:20;;;;;;;2.17;0.28;;;;;;;-141.50;100.00;63355.56;5010219;28;20089;-78
2024/02/19 10:25:50;;;;;;;0.35;0.20;;;;;;;-141.50;100.00;63355.56;5010181;28;20244;-78
2024/02/19 10:28:18;;;;;;;0.30;0.17;;;;;;;-141.50;100.00;63355.56;5021554;28;20064;-77
2024/02/19 10:30:45;;;;;;;0.65;0.25;;;;;;;-141.50;100.00;63355.56;5003148;28;20656;-79
2024/02/19 10:33:11;;;;;;;0.17;0.10;;;;;;;-141.50;100.00;63355.56;5011145;28;20062;-78
2024/02/19 10:35:38;;;;;;;1.65;0.20;;;;;;;-141.50;100.00;63355.56;4995216;28;20050;-78
2024/02/19 10:38:05;;;;;;;0.60;0.20;;;;;;;-141.50;100.00;63355.56;4994324;28;20076;-78
2024/02/19 10:40:32;;;;;;;0.30;0.20;;;;;;;-141.50;100.00;63355.56;5010206;28;20065;-78
2024/02/19 10:43:00;;;;;;;0.13;0.10;;;;;;;-141.50;100.00;63355.56;5011644;28;20138;-78
2024/02/19 10:45:28;;;;;;;1.20;0.15;;;;;;;-141.50;100.00;63355.56;5010086;28;20052;-77
2024/02/19 10:47:55;;;;;;;0.20;0.20;;;;;;;-141.50;100.00;63355.56;4986692;28;20058;-77
2024/02/19 10:50:22;;;;;;;0.15;0.10;;;;;;;-141.50;100.00;63355.56;4988775;28;20116;-78
2024/02/19 10:52:51;;;;;;;0.95;0.28;;;;;;;-141.50;100.00;63355.56;4990695;28;20515;-78
2024/02/19 10:55:22;;;;;;;1.55;0.22;;;;;;;-141.50;100.00;63355.56;5007588;28;20072;-77
2024/02/19 10:58:14;;;;;;;0.73;0.20;;;;;;;-141.50;100.00;63355.56;5006729;28;20073;-77
2024/02/19 11:00:42;;;;;;;0.80;0.20;;;;;;;-141.50;100.00;63355.56;5004999;28;20042;-78
2024/02/19 11:03:11;;;;;;;1.45;0.20;;;;;;;-141.50;100.00;63355.56;5007563;28;20141;-78
2024/02/19 11:05:39;;;;;;;0.45;0.20;;;;;;;-141.50;100.00;63355.56;4989346;28;20042;-76
2024/02/19 11:08:28;;;;;;;3.00;0.73;;;;;;;-141.50;100.00;63355.56;5004779;28;20254;-77
2024/02/19 11:10:55;;;;;;;1.33;0.22;;;;;;;-141.50;100.00;63355.56;5006336;28;20041;-78